sensor_id;sensor_type;location;lat;lon;timestamp;temperature;humidity
40600;DHT22;26309;50.924;4.754;2024-02-23T00:01:40;6.90;99.90
40600;DHT22;26309;50.924;4.754;2024-02-23T00:04:06;6.90;99.90
40600;DHT22;26309;50.924;4.754;2024-02-23T00:06:34;6.90;99.90
40600;DHT22;26309;50.924;4.754;2024-02-23T00:09:00;6.80;99.90
40600;DHT22;26309;50.924;4.754;2024-02-23T00:11:26;6.80;99.90
40600;DHT22;26309;50.924;4.754;2024-02-23T00:13:54;6.80;99.90
40600;DHT22;26309;50.924;4.754;2024-02-23T00:16:19;6.80;99.90
40600;DHT22;26309;50.924;4.754;2024-02-23T00:18:45;6.70;99.90
40600;DHT22;26309;50.924;4.754;2024-02-23T00:21:11;6.70;99.90
40600;DHT22;26309;50.924;4.754;2024-02-23T00:23:37;6.70;99.90
40600;DHT22;26309;50.924;4.754;2024-02-23T00:26:03;6.80;99.90
40600;DHT22;26309;50.924;4.754;2024-02-23T00:28:29;6.70;99.90
40600;DHT22;26309;50.924;4.754;2024-02-23T00:30:56;6.80;99.90
40600;DHT22;26309;50.924;4.754;2024-02-23T00:33:22;6.70;99.90
40600;DHT22;26309;50.924;4.754;2024-02-23T00:35:47;6.60;99.90
40600;DHT22;26309;50.924;4.754;2024-02-23T00:38:13;6.70;99.90
40600;DHT22;26309;50.924;4.754;2024-02-23T00:40:40;6.70;99.90
40600;DHT22;26309;50.924;4.754;2024-02-23T00:43:06;6.70;99.90
40600;DHT22;26309;50.924;4.754;2024-02-23T00:45:33;6.60;99.90
40600;DHT22;26309;50.924;4.754;2024-02-23T00:47:58;6.60;99.90
40600;DHT22;26309;50.924;4.754;2024-02-23T00:50:24;6.60;99.90
40600;DHT22;26309;50.924;4.754;2024-02-23T00:52:53;6.70;99.90
40600;DHT22;26309;50.924;4.754;2024-02-23T00:55:19;6.50;99.90
40600;DHT22;26309;50.924;4.754;2024-02-23T00:57:45;6.50;99.90
40600;DHT22;26309;50.924;4.754;2024-02-23T01:00:11;6.50;99.90
40600;DHT22;26309;50.924;4.754;2024-02-23T01:02:38;6.50;99.90
40600;DHT22;26309;50.924;4.754;2024-02-23T01:05:06;6.60;99.90
40600;DHT22;26309;50.924;4.754;2024-02-23T01:07:35;6.60;99.90
40600;DHT22;26309;50.924;4.754;2024-02-23T01:10:01;6.50;99.90
40600;DHT22;26309;50.924;4.754;2024-02-23T01:12:27;6.50;99.90
40600;DHT22;26309;50.924;4.754;2024-02-23T01:14:53;6.40;99.90
40600;DHT22;26309;50.924;4.754;2024-02-23T01:17:19;6.50;99.90
40600;DHT22;26309;50.924;4.754;2024-02-23T01:19:45;6.40;99.90
40600;DHT22;26309;50.924;4.754;2024-02-23T01:22:11;6.40;99.90
40600;DHT22;26309;50.924;4.754;2024-02-23T01:24:37;6.40;99.90
40600;DHT22;26309;50.924;4.754;2024-02-23T01:27:03;6.50;99.90
40600;DHT22;26309;50.924;4.754;2024-02-23T01:29:29;6.50;99.90
40600;DHT22;26309;50.924;4.754;2024-02-23T01:31:55;6.60;99.90
40600;DHT22;26309;50.924;4.754;2024-02-23T01:34:21;6.60;99.90
40600;DHT22;26309;50.924;4.754;2024-02-23T01:36:47;6.60;99.90
40600;DHT22;26309;50.924;4.754;2024-02-23T01:39:13;6.50;99.90
40600;DHT22;26309;50.924;4.754;2024-02-23T01:41:39;6.40;99.90
40600;DHT22;26309;50.924;4.754;2024-02-23T01:44:06;6.50;99.90
40600;DHT22;26309;50.924;4.754;2024-02-23T01:46:32;6.40;99.90
40600;DHT22;26309;50.924;4.754;2024-02-23T01:48:59;6.30;99.90
40600;DHT22;26309;50.924;4.754;2024-02-23T01:51:25;6.20;99.90
40600;DHT22;26309;50.924;4.754;2024-02-23T01:53:51;6.30;99.90
40600;DHT22;26309;50.924;4.754;2024-02-23T01:56:17;6.20;99.90
40600;DHT22;26309;50.924;4.754;2024-02-23T01:58:46;6.10;99.90
40600;DHT22;26309;50.924;4.754;2024-02-23T02:01:12;6.20;99.90
40600;DHT22;26309;50.924;4.754;2024-02-23T02:03:38;6.20;99.90
40600;DHT22;26309;50.924;4.754;2024-02-23T02:06:09;6.20;99.90
40600;DHT22;26309;50.924;4.754;2024-02-23T02:08:35;6.30;99.90
40600;DHT22;26309;50.924;4.754;2024-02-23T02:11:01;6.30;99.90
40600;DHT22;26309;50.924;4.754;2024-02-23T02:13:30;6.30;99.90
40600;DHT22;26309;50.924;4.754;2024-02-23T02:15:59;6.30;99.90
40600;DHT22;26309;50.924;4.754;2024-02-23T02:18:25;6.30;99.90
40600;DHT22;26309;50.924;4.754;2024-02-23T02:20:55;6.30;99.90
40600;DHT22;26309;50.924;4.754;2024-02-23T02:23:25;6.40;99.90
40600;DHT22;26309;50.924;4.754;2024-02-23T02:25:56;6.50;99.90
40600;DHT22;26309;50.924;4.754;2024-02-23T02:28:24;6.60;99.90
40600;DHT22;26309;50.924;4.754;2024-02-23T02:30:51;6.60;99.90
40600;DHT22;26309;50.924;4.754;2024-02-23T02:33:21;6.70;99.90
40600;DHT22;26309;50.924;4.754;2024-02-23T02:35:47;6.60;99.90
40600;DHT22;26309;50.924;4.754;2024-02-23T02:38:13;6.60;99.90
40600;DHT22;26309;50.924;4.754;2024-02-23T02:40:39;6.60;99.90
40600;DHT22;26309;50.924;4.754;2024-02-23T02:43:05;6.60;99.90
40600;DHT22;26309;50.924;4.754;2024-02-23T02:45:31;6.60;99.90
40600;DHT22;26309;50.924;4.754;2024-02-23T02:47:57;6.70;99.90
40600;DHT22;26309;50.924;4.754;2024-02-23T02:50:23;6.70;99.90
40600;DHT22;26309;50.924;4.754;2024-02-23T02:52:49;6.80;99.90
40600;DHT22;26309;50.924;4.754;2024-02-23T02:55:15;6.90;99.90
40600;DHT22;26309;50.924;4.754;2024-02-23T02:57:40;6.90;99.90
40600;DHT22;26309;50.924;4.754;2024-02-23T03:00:10;6.90;99.90
40600;DHT22;26309;50.924;4.754;2024-02-23T03:02:36;7.00;99.90
40600;DHT22;26309;50.924;4.754;2024-02-23T03:05:02;6.90;99.90
40600;DHT22;26309;50.924;4.754;2024-02-23T03:07:28;6.90;99.90
40600;DHT22;26309;50.924;4.754;2024-02-23T03:09:54;6.80;99.90
40600;DHT22;26309;50.924;4.754;2024-02-23T03:12:20;6.80;99.90
40600;DHT22;26309;50.924;4.754;2024-02-23T03:14:46;6.70;99.90
40600;DHT22;26309;50.924;4.754;2024-02-23T03:17:12;6.80;99.90
40600;DHT22;26309;50.924;4.754;2024-02-23T03:19:38;6.90;99.90
40600;DHT22;26309;50.924;4.754;2024-02-23T03:22:04;7.00;99.90
40600;DHT22;26309;50.924;4.754;2024-02-23T03:24:30;7.00;99.90
40600;DHT22;26309;50.924;4.754;2024-02-23T03:26:56;6.90;99.90
40600;DHT22;26309;50.924;4.754;2024-02-23T03:29:22;7.00;99.90
40600;DHT22;26309;50.924;4.754;2024-02-23T03:31:55;7.00;99.90
40600;DHT22;26309;50.924;4.754;2024-02-23T03:34:21;6.90;99.90
40600;DHT22;26309;50.924;4.754;2024-02-23T03:36:47;6.90;99.90
40600;DHT22;26309;50.924;4.754;2024-02-23T03:39:13;6.90;99.90
40600;DHT22;26309;50.924;4.754;2024-02-23T03:41:39;6.90;99.90
40600;DHT22;26309;50.924;4.754;2024-02-23T03:44:05;6.90;99.90
40600;DHT22;26309;50.924;4.754;2024-02-23T03:46:31;7.00;99.90
40600;DHT22;26309;50.924;4.754;2024-02-23T03:48:57;7.00;99.90
40600;DHT22;26309;50.924;4.754;2024-02-23T03:51:23;6.90;99.90
40600;DHT22;26309;50.924;4.754;2024-02-23T03:53:49;6.90;99.90
40600;DHT22;26309;50.924;4.754;2024-02-23T03:56:16;6.90;99.90
40600;DHT22;26309;50.924;4.754;2024-02-23T03:58:42;6.90;99.90
40600;DHT22;26309;50.924;4.754;2024-02-23T04:01:08;7.00;99.90
40600;DHT22;26309;50.924;4.754;2024-02-23T04:03:34;6.90;99.90
40600;DHT22;26309;50.924;4.754;2024-02-23T04:05:59;6.90;99.90
40600;DHT22;26309;50.924;4.754;2024-02-23T04:08:26;6.90;99.90
40600;DHT22;26309;50.924;4.754;2024-02-23T04:10:51;7.00;99.90
40600;DHT22;26309;50.924;4.754;2024-02-23T04:13:17;7.10;99.90
40600;DHT22;26309;50.924;4.754;2024-02-23T04:15:44;7.20;99.90
40600;DHT22;26309;50.924;4.754;2024-02-23T04:18:10;7.10;99.90
40600;DHT22;26309;50.924;4.754;2024-02-23T04:20:39;7.20;99.90
40600;DHT22;26309;50.924;4.754;2024-02-23T04:23:05;7.10;99.90
40600;DHT22;26309;50.924;4.754;2024-02-23T04:25:31;7.10;99.90
40600;DHT22;26309;50.924;4.754;2024-02-23T04:27:57;7.10;99.90
40600;DHT22;26309;50.924;4.754;2024-02-23T04:30:23;7.10;99.90
40600;DHT22;26309;50.924;4.754;2024-02-23T04:32:49;7.30;99.90
40600;DHT22;26309;50.924;4.754;2024-02-23T04:35:15;7.30;99.90
40600;DHT22;26309;50.924;4.754;2024-02-23T04:37:44;7.40;99.90
40600;DHT22;26309;50.924;4.754;2024-02-23T04:40:11;7.20;99.90
40600;DHT22;26309;50.924;4.754;2024-02-23T04:42:37;7.10;99.90
40600;DHT22;26309;50.924;4.754;2024-02-23T04:45:04;7.10;99.90
40600;DHT22;26309;50.924;4.754;2024-02-23T04:47:30;7.00;99.90
40600;DHT22;26309;50.924;4.754;2024-02-23T04:49:56;6.90;99.90
40600;DHT22;26309;50.924;4.754;2024-02-23T04:52:22;7.00;99.90
40600;DHT22;26309;50.924;4.754;2024-02-23T04:54:48;7.10;99.90
40600;DHT22;26309;50.924;4.754;2024-02-23T04:57:14;7.10;99.90
40600;DHT22;26309;50.924;4.754;2024-02-23T04:59:39;7.00;99.90
40600;DHT22;26309;50.924;4.754;2024-02-23T05:02:05;7.00;99.90
40600;DHT22;26309;50.924;4.754;2024-02-23T05:04:34;7.10;99.90
40600;DHT22;26309;50.924;4.754;2024-02-23T05:07:00;7.00;99.90
40600;DHT22;26309;50.924;4.754;2024-02-23T05:09:27;7.20;99.90
40600;DHT22;26309;50.924;4.754;2024-02-23T05:11:52;7.10;99.90
40600;DHT22;26309;50.924;4.754;2024-02-23T05:14:18;7.10;99.90
40600;DHT22;26309;50.924;4.754;2024-02-23T05:16:44;7.20;99.90
40600;DHT22;26309;50.924;4.754;2024-02-23T05:19:10;7.20;99.90
40600;DHT22;26309;50.924;4.754;2024-02-23T05:21:35;7.10;99.90
40600;DHT22;26309;50.924;4.754;2024-02-23T05:24:01;7.20;99.90
40600;DHT22;26309;50.924;4.754;2024-02-23T05:26:27;7.30;99.90
40600;DHT22;26309;50.924;4.754;2024-02-23T05:28:54;7.30;99.90
40600;DHT22;26309;50.924;4.754;2024-02-23T05:31:20;7.20;99.90
40600;DHT22;26309;50.924;4.754;2024-02-23T05:33:45;7.10;99.90
40600;DHT22;26309;50.924;4.754;2024-02-23T05:36:11;7.10;99.90
40600;DHT22;26309;50.924;4.754;2024-02-23T05:38:37;7.30;99.90
40600;DHT22;26309;50.924;4.754;2024-02-23T05:41:03;7.30;99.90
40600;DHT22;26309;50.924;4.754;2024-02-23T05:43:30;7.30;99.90
40600;DHT22;26309;50.924;4.754;2024-02-23T05:45:56;7.40;99.90
40600;DHT22;26309;50.924;4.754;2024-02-23T05:48:24;7.50;99.90
40600;DHT22;26309;50.924;4.754;2024-02-23T05:50:50;7.50;99.90
40600;DHT22;26309;50.924;4.754;2024-02-23T05:53:15;7.50;99.90
40600;DHT22;26309;50.924;4.754;2024-02-23T05:55:41;7.50;99.90
40600;DHT22;26309;50.924;4.754;2024-02-23T05:58:07;7.50;99.90
40600;DHT22;26309;50.924;4.754;2024-02-23T06:00:34;7.50;99.90
40600;DHT22;26309;50.924;4.754;2024-02-23T06:03:00;7.40;99.90
40600;DHT22;26309;50.924;4.754;2024-02-23T06:05:26;7.40;99.90
40600;DHT22;26309;50.924;4.754;2024-02-23T06:07:51;7.50;99.90
40600;DHT22;26309;50.924;4.754;2024-02-23T06:10:17;7.40;99.90
40600;DHT22;26309;50.924;4.754;2024-02-23T06:12:44;7.40;99.90
40600;DHT22;26309;50.924;4.754;2024-02-23T06:15:09;7.40;99.90
40600;DHT22;26309;50.924;4.754;2024-02-23T06:17:35;7.30;99.90
40600;DHT22;26309;50.924;4.754;2024-02-23T06:20:01;7.30;99.90
40600;DHT22;26309;50.924;4.754;2024-02-23T06:22:27;7.30;99.90
40600;DHT22;26309;50.924;4.754;2024-02-23T06:24:52;7.40;99.90
40600;DHT22;26309;50.924;4.754;2024-02-23T06:27:18;7.30;99.90
40600;DHT22;26309;50.924;4.754;2024-02-23T06:29:44;7.40;99.90
40600;DHT22;26309;50.924;4.754;2024-02-23T06:32:10;7.50;99.90
40600;DHT22;26309;50.924;4.754;2024-02-23T06:34:35;7.50;99.90
40600;DHT22;26309;50.924;4.754;2024-02-23T06:37:01;7.50;99.90
40600;DHT22;26309;50.924;4.754;2024-02-23T06:39:28;7.50;99.90
40600;DHT22;26309;50.924;4.754;2024-02-23T06:41:54;7.50;99.90
40600;DHT22;26309;50.924;4.754;2024-02-23T06:44:20;7.50;99.90
40600;DHT22;26309;50.924;4.754;2024-02-23T06:46:46;7.60;99.90
40600;DHT22;26309;50.924;4.754;2024-02-23T06:49:11;7.60;99.90
40600;DHT22;26309;50.924;4.754;2024-02-23T06:51:37;7.50;99.90
40600;DHT22;26309;50.924;4.754;2024-02-23T06:54:06;7.40;99.90
40600;DHT22;26309;50.924;4.754;2024-02-23T06:56:33;7.40;99.90
40600;DHT22;26309;50.924;4.754;2024-02-23T06:59:00;7.40;99.90
40600;DHT22;26309;50.924;4.754;2024-02-23T07:01:25;7.50;99.90
40600;DHT22;26309;50.924;4.754;2024-02-23T07:03:52;7.60;99.90
40600;DHT22;26309;50.924;4.754;2024-02-23T07:06:18;7.60;99.90
40600;DHT22;26309;50.924;4.754;2024-02-23T07:08:45;7.70;99.90
40600;DHT22;26309;50.924;4.754;2024-02-23T07:11:11;7.60;99.90
40600;DHT22;26309;50.924;4.754;2024-02-23T07:13:37;7.60;99.90
40600;DHT22;26309;50.924;4.754;2024-02-23T07:16:03;7.70;99.90
40600;DHT22;26309;50.924;4.754;2024-02-23T07:18:29;7.70;99.90
40600;DHT22;26309;50.924;4.754;2024-02-23T07:20:55;7.80;99.90
40600;DHT22;26309;50.924;4.754;2024-02-23T07:23:21;7.90;99.90
40600;DHT22;26309;50.924;4.754;2024-02-23T07:25:48;7.90;99.90
40600;DHT22;26309;50.924;4.754;2024-02-23T07:28:16;7.90;99.90
40600;DHT22;26309;50.924;4.754;2024-02-23T07:30:45;8.00;99.90
40600;DHT22;26309;50.924;4.754;2024-02-23T07:33:13;8.00;99.90
40600;DHT22;26309;50.924;4.754;2024-02-23T07:35:38;8.00;99.90
40600;DHT22;26309;50.924;4.754;2024-02-23T07:38:04;8.10;99.90
40600;DHT22;26309;50.924;4.754;2024-02-23T07:40:30;8.00;99.90
40600;DHT22;26309;50.924;4.754;2024-02-23T07:42:57;7.80;99.90
40600;DHT22;26309;50.924;4.754;2024-02-23T07:45:23;7.70;99.90
40600;DHT22;26309;50.924;4.754;2024-02-23T07:47:49;7.60;99.90
40600;DHT22;26309;50.924;4.754;2024-02-23T07:50:15;7.70;99.90
40600;DHT22;26309;50.924;4.754;2024-02-23T07:52:41;7.80;99.90
40600;DHT22;26309;50.924;4.754;2024-02-23T07:55:07;7.80;99.90
40600;DHT22;26309;50.924;4.754;2024-02-23T07:57:33;7.70;99.90
40600;DHT22;26309;50.924;4.754;2024-02-23T08:00:00;7.80;99.90
40600;DHT22;26309;50.924;4.754;2024-02-23T08:02:26;7.80;99.90
40600;DHT22;26309;50.924;4.754;2024-02-23T08:04:52;7.90;99.90
40600;DHT22;26309;50.924;4.754;2024-02-23T08:07:18;7.90;99.90
40600;DHT22;26309;50.924;4.754;2024-02-23T08:09:43;8.00;99.90
40600;DHT22;26309;50.924;4.754;2024-02-23T08:12:10;8.00;99.90
40600;DHT22;26309;50.924;4.754;2024-02-23T08:14:37;8.00;99.90
40600;DHT22;26309;50.924;4.754;2024-02-23T08:17:05;8.00;99.90
40600;DHT22;26309;50.924;4.754;2024-02-23T08:19:31;8.00;99.90
40600;DHT22;26309;50.924;4.754;2024-02-23T08:21:57;8.00;99.90
40600;DHT22;26309;50.924;4.754;2024-02-23T08:24:23;8.10;99.90
40600;DHT22;26309;50.924;4.754;2024-02-23T08:26:48;8.20;99.90
40600;DHT22;26309;50.924;4.754;2024-02-23T08:29:14;8.20;99.90
40600;DHT22;26309;50.924;4.754;2024-02-23T08:31:40;8.30;99.90
40600;DHT22;26309;50.924;4.754;2024-02-23T08:34:06;8.30;99.90
40600;DHT22;26309;50.924;4.754;2024-02-23T08:36:32;8.20;99.90
40600;DHT22;26309;50.924;4.754;2024-02-23T08:38:57;7.70;99.90
40600;DHT22;26309;50.924;4.754;2024-02-23T08:41:23;7.70;99.90
40600;DHT22;26309;50.924;4.754;2024-02-23T08:43:49;7.70;99.90
40600;DHT22;26309;50.924;4.754;2024-02-23T08:46:15;7.70;99.90
40600;DHT22;26309;50.924;4.754;2024-02-23T08:48:41;7.70;99.90
40600;DHT22;26309;50.924;4.754;2024-02-23T08:51:07;7.60;99.90
40600;DHT22;26309;50.924;4.754;2024-02-23T08:53:33;7.60;99.90
40600;DHT22;26309;50.924;4.754;2024-02-23T08:55:58;7.60;99.90
40600;DHT22;26309;50.924;4.754;2024-02-23T08:58:24;7.60;99.90
40600;DHT22;26309;50.924;4.754;2024-02-23T09:00:50;7.50;99.90
40600;DHT22;26309;50.924;4.754;2024-02-23T09:03:16;7.70;99.90
40600;DHT22;26309;50.924;4.754;2024-02-23T09:05:41;7.60;99.90
40600;DHT22;26309;50.924;4.754;2024-02-23T09:08:07;7.60;99.90
40600;DHT22;26309;50.924;4.754;2024-02-23T09:10:33;7.70;99.90
40600;DHT22;26309;50.924;4.754;2024-02-23T09:13:07;7.80;99.90
40600;DHT22;26309;50.924;4.754;2024-02-23T09:15:33;7.80;99.90
40600;DHT22;26309;50.924;4.754;2024-02-23T09:17:58;7.80;99.90
40600;DHT22;26309;50.924;4.754;2024-02-23T09:20:24;7.80;99.90
40600;DHT22;26309;50.924;4.754;2024-02-23T09:22:50;7.80;99.90
40600;DHT22;26309;50.924;4.754;2024-02-23T09:25:16;7.90;99.90
40600;DHT22;26309;50.924;4.754;2024-02-23T09:27:42;8.20;99.90
40600;DHT22;26309;50.924;4.754;2024-02-23T09:30:12;8.20;99.90
40600;DHT22;26309;50.924;4.754;2024-02-23T09:32:38;8.30;99.90
40600;DHT22;26309;50.924;4.754;2024-02-23T09:35:04;8.20;99.90
40600;DHT22;26309;50.924;4.754;2024-02-23T09:37:32;8.30;99.90
40600;DHT22;26309;50.924;4.754;2024-02-23T09:39:57;8.30;99.90
40600;DHT22;26309;50.924;4.754;2024-02-23T09:42:23;8.30;99.90
40600;DHT22;26309;50.924;4.754;2024-02-23T09:44:59;8.40;99.90
40600;DHT22;26309;50.924;4.754;2024-02-23T09:47:28;8.40;99.90
40600;DHT22;26309;50.924;4.754;2024-02-23T09:49:55;8.40;99.90
40600;DHT22;26309;50.924;4.754;2024-02-23T09:52:21;8.40;99.90
40600;DHT22;26309;50.924;4.754;2024-02-23T09:54:50;8.50;99.90
40600;DHT22;26309;50.924;4.754;2024-02-23T09:57:16;8.70;99.90
40600;DHT22;26309;50.924;4.754;2024-02-23T09:59:44;8.80;99.90
40600;DHT22;26309;50.924;4.754;2024-02-23T10:02:17;8.90;99.90
40600;DHT22;26309;50.924;4.754;2024-02-23T10:04:44;8.80;99.90
40600;DHT22;26309;50.924;4.754;2024-02-23T10:07:10;8.70;99.90
40600;DHT22;26309;50.924;4.754;2024-02-23T10:09:39;8.70;99.90
40600;DHT22;26309;50.924;4.754;2024-02-23T10:12:06;8.70;99.90
40600;DHT22;26309;50.924;4.754;2024-02-23T10:14:32;8.70;99.90
40600;DHT22;26309;50.924;4.754;2024-02-23T10:16:57;8.70;99.90
40600;DHT22;26309;50.924;4.754;2024-02-23T10:19:24;8.70;99.90
40600;DHT22;26309;50.924;4.754;2024-02-23T10:21:55;8.90;99.90
40600;DHT22;26309;50.924;4.754;2024-02-23T10:24:22;9.20;99.90
40600;DHT22;26309;50.924;4.754;2024-02-23T10:26:49;9.30;99.90
40600;DHT22;26309;50.924;4.754;2024-02-23T10:29:15;9.30;99.90
40600;DHT22;26309;50.924;4.754;2024-02-23T10:31:41;9.30;99.90
40600;DHT22;26309;50.924;4.754;2024-02-23T10:34:08;9.30;99.90
40600;DHT22;26309;50.924;4.754;2024-02-23T10:36:41;9.20;99.90
40600;DHT22;26309;50.924;4.754;2024-02-23T10:39:11;9.10;99.90
40600;DHT22;26309;50.924;4.754;2024-02-23T10:41:46;9.10;99.90
40600;DHT22;26309;50.924;4.754;2024-02-23T10:44:12;9.20;99.90
40600;DHT22;26309;50.924;4.754;2024-02-23T10:46:41;9.40;99.90
40600;DHT22;26309;50.924;4.754;2024-02-23T10:49:07;9.40;99.90
40600;DHT22;26309;50.924;4.754;2024-02-23T10:51:34;9.60;99.90
40600;DHT22;26309;50.924;4.754;2024-02-23T10:54:00;9.80;99.90
40600;DHT22;26309;50.924;4.754;2024-02-23T10:56:26;10.00;99.90
40600;DHT22;26309;50.924;4.754;2024-02-23T10:58:52;10.00;99.90
40600;DHT22;26309;50.924;4.754;2024-02-23T11:01:19;9.90;99.90
40600;DHT22;26309;50.924;4.754;2024-02-23T11:03:46;9.90;99.90
40600;DHT22;26309;50.924;4.754;2024-02-23T11:06:16;9.80;99.90
40600;DHT22;26309;50.924;4.754;2024-02-23T11:08:47;10.00;99.90
40600;DHT22;26309;50.924;4.754;2024-02-23T11:11:16;10.10;99.90
40600;DHT22;26309;50.924;4.754;2024-02-23T11:13:44;10.10;99.90
40600;DHT22;26309;50.924;4.754;2024-02-23T11:16:10;10.10;99.90
40600;DHT22;26309;50.924;4.754;2024-02-23T11:18:39;10.40;99.90
40600;DHT22;26309;50.924;4.754;2024-02-23T11:21:08;10.30;99.90
40600;DHT22;26309;50.924;4.754;2024-02-23T11:26:11;10.10;99.90
40600;DHT22;26309;50.924;4.754;2024-02-23T11:28:57;10.20;99.90
40600;DHT22;26309;50.924;4.754;2024-02-23T11:31:25;10.20;99.90
40600;DHT22;26309;50.924;4.754;2024-02-23T11:33:55;10.30;99.90
40600;DHT22;26309;50.924;4.754;2024-02-23T11:36:28;10.20;99.90
40600;DHT22;26309;50.924;4.754;2024-02-23T11:38:57;9.90;99.90
40600;DHT22;26309;50.924;4.754;2024-02-23T11:41:24;9.80;99.90
40600;DHT22;26309;50.924;4.754;2024-02-23T11:43:54;9.80;99.90
40600;DHT22;26309;50.924;4.754;2024-02-23T11:46:21;9.70;99.90
40600;DHT22;26309;50.924;4.754;2024-02-23T11:48:48;9.70;99.90
40600;DHT22;26309;50.924;4.754;2024-02-23T11:51:23;9.70;99.90
40600;DHT22;26309;50.924;4.754;2024-02-23T11:53:50;9.70;99.90
40600;DHT22;26309;50.924;4.754;2024-02-23T11:56:18;9.70;99.90
40600;DHT22;26309;50.924;4.754;2024-02-23T11:58:46;9.60;99.90
40600;DHT22;26309;50.924;4.754;2024-02-23T12:01:12;9.50;99.90
40600;DHT22;26309;50.924;4.754;2024-02-23T12:03:38;9.50;99.90
40600;DHT22;26309;50.924;4.754;2024-02-23T12:06:05;9.60;99.90
40600;DHT22;26309;50.924;4.754;2024-02-23T12:08:32;9.80;99.90
40600;DHT22;26309;50.924;4.754;2024-02-23T12:11:07;9.80;99.90
40600;DHT22;26309;50.924;4.754;2024-02-23T12:13:36;9.90;99.90
40600;DHT22;26309;50.924;4.754;2024-02-23T12:16:03;9.90;99.90
40600;DHT22;26309;50.924;4.754;2024-02-23T12:18:29;10.10;99.90
40600;DHT22;26309;50.924;4.754;2024-02-23T12:21:08;9.90;99.90
40600;DHT22;26309;50.924;4.754;2024-02-23T12:23:43;9.90;99.90
40600;DHT22;26309;50.924;4.754;2024-02-23T12:26:11;9.90;99.90
40600;DHT22;26309;50.924;4.754;2024-02-23T12:28:39;10.00;99.90
40600;DHT22;26309;50.924;4.754;2024-02-23T12:31:05;10.30;99.90
40600;DHT22;26309;50.924;4.754;2024-02-23T12:33:33;10.60;99.90
40600;DHT22;26309;50.924;4.754;2024-02-23T12:36:00;10.70;99.90
40600;DHT22;26309;50.924;4.754;2024-02-23T12:38:27;10.80;99.90
40600;DHT22;26309;50.924;4.754;2024-02-23T12:40:53;10.70;99.90
40600;DHT22;26309;50.924;4.754;2024-02-23T12:43:19;10.70;99.90
40600;DHT22;26309;50.924;4.754;2024-02-23T12:45:52;10.70;99.90
40600;DHT22;26309;50.924;4.754;2024-02-23T12:48:18;10.40;99.90
40600;DHT22;26309;50.924;4.754;2024-02-23T12:50:46;10.30;99.90
40600;DHT22;26309;50.924;4.754;2024-02-23T12:53:30;10.30;99.90
40600;DHT22;26309;50.924;4.754;2024-02-23T12:56:10;10.40;99.90
40600;DHT22;26309;50.924;4.754;2024-02-23T12:58:40;10.60;99.90
40600;DHT22;26309;50.924;4.754;2024-02-23T13:01:07;10.70;99.90
40600;DHT22;26309;50.924;4.754;2024-02-23T13:03:34;10.80;99.90
40600;DHT22;26309;50.924;4.754;2024-02-23T13:06:01;11.00;99.90
40600;DHT22;26309;50.924;4.754;2024-02-23T13:08:28;11.10;99.90
40600;DHT22;26309;50.924;4.754;2024-02-23T13:10:54;11.00;99.90
40600;DHT22;26309;50.924;4.754;2024-02-23T13:13:21;10.80;99.90
40600;DHT22;26309;50.924;4.754;2024-02-23T13:15:48;10.80;99.90
40600;DHT22;26309;50.924;4.754;2024-02-23T13:18:14;10.80;99.90
40600;DHT22;26309;50.924;4.754;2024-02-23T13:20:40;10.70;99.90
40600;DHT22;26309;50.924;4.754;2024-02-23T13:23:10;10.70;99.90
40600;DHT22;26309;50.924;4.754;2024-02-23T13:25:38;10.70;99.90
40600;DHT22;26309;50.924;4.754;2024-02-23T13:28:07;11.00;99.90
40600;DHT22;26309;50.924;4.754;2024-02-23T13:30:37;11.00;99.90
40600;DHT22;26309;50.924;4.754;2024-02-23T13:33:03;10.90;99.90
40600;DHT22;26309;50.924;4.754;2024-02-23T13:35:30;11.10;99.90
40600;DHT22;26309;50.924;4.754;2024-02-23T13:37:56;11.20;99.90
40600;DHT22;26309;50.924;4.754;2024-02-23T13:40:25;11.20;99.90
40600;DHT22;26309;50.924;4.754;2024-02-23T13:42:51;11.40;99.90
40600;DHT22;26309;50.924;4.754;2024-02-23T13:45:19;11.50;99.90
40600;DHT22;26309;50.924;4.754;2024-02-23T13:48:05;11.50;99.90
40600;DHT22;26309;50.924;4.754;2024-02-23T13:50:32;11.50;99.90
40600;DHT22;26309;50.924;4.754;2024-02-23T13:52:58;11.40;99.90
40600;DHT22;26309;50.924;4.754;2024-02-23T13:55:24;11.20;99.90
40600;DHT22;26309;50.924;4.754;2024-02-23T13:57:50;11.20;99.90
40600;DHT22;26309;50.924;4.754;2024-02-23T14:00:17;11.20;99.90
40600;DHT22;26309;50.924;4.754;2024-02-23T14:02:44;11.20;99.90
40600;DHT22;26309;50.924;4.754;2024-02-23T14:05:10;11.20;99.90
40600;DHT22;26309;50.924;4.754;2024-02-23T14:07:36;11.30;99.90
40600;DHT22;26309;50.924;4.754;2024-02-23T14:10:03;11.40;99.90
40600;DHT22;26309;50.924;4.754;2024-02-23T14:12:29;11.30;99.90
40600;DHT22;26309;50.924;4.754;2024-02-23T14:14:55;11.40;99.90
40600;DHT22;26309;50.924;4.754;2024-02-23T14:17:21;11.40;99.90
40600;DHT22;26309;50.924;4.754;2024-02-23T14:19:47;11.10;99.90
40600;DHT22;26309;50.924;4.754;2024-02-23T14:22:13;11.10;99.90
40600;DHT22;26309;50.924;4.754;2024-02-23T14:24:38;11.10;99.90
40600;DHT22;26309;50.924;4.754;2024-02-23T14:27:04;11.00;99.90
40600;DHT22;26309;50.924;4.754;2024-02-23T14:29:30;11.10;99.90
40600;DHT22;26309;50.924;4.754;2024-02-23T14:31:56;11.30;99.90
40600;DHT22;26309;50.924;4.754;2024-02-23T14:34:22;11.50;99.90
40600;DHT22;26309;50.924;4.754;2024-02-23T14:36:49;11.60;99.90
40600;DHT22;26309;50.924;4.754;2024-02-23T14:39:16;11.40;99.90
40600;DHT22;26309;50.924;4.754;2024-02-23T14:41:41;11.20;99.90
40600;DHT22;26309;50.924;4.754;2024-02-23T14:44:08;11.20;99.90
40600;DHT22;26309;50.924;4.754;2024-02-23T14:46:34;11.20;99.90
40600;DHT22;26309;50.924;4.754;2024-02-23T14:49:00;11.20;99.90
40600;DHT22;26309;50.924;4.754;2024-02-23T14:51:25;11.20;99.90
40600;DHT22;26309;50.924;4.754;2024-02-23T14:53:51;11.20;99.90
40600;DHT22;26309;50.924;4.754;2024-02-23T14:56:17;11.40;99.90
40600;DHT22;26309;50.924;4.754;2024-02-23T14:58:43;11.50;99.90
40600;DHT22;26309;50.924;4.754;2024-02-23T15:01:08;11.50;99.90
40600;DHT22;26309;50.924;4.754;2024-02-23T15:03:34;11.70;99.90
40600;DHT22;26309;50.924;4.754;2024-02-23T15:06:01;11.60;99.90
40600;DHT22;26309;50.924;4.754;2024-02-23T15:08:27;11.70;99.90
40600;DHT22;26309;50.924;4.754;2024-02-23T15:10:54;11.50;99.90
40600;DHT22;26309;50.924;4.754;2024-02-23T15:13:20;11.40;99.90
40600;DHT22;26309;50.924;4.754;2024-02-23T15:15:46;11.40;99.90
40600;DHT22;26309;50.924;4.754;2024-02-23T15:18:12;11.30;99.90
40600;DHT22;26309;50.924;4.754;2024-02-23T15:20:38;11.30;99.90
40600;DHT22;26309;50.924;4.754;2024-02-23T15:23:04;11.40;99.90
40600;DHT22;26309;50.924;4.754;2024-02-23T15:25:30;11.60;99.90
40600;DHT22;26309;50.924;4.754;2024-02-23T15:27:56;11.40;99.90
40600;DHT22;26309;50.924;4.754;2024-02-23T15:30:26;11.30;99.90
40600;DHT22;26309;50.924;4.754;2024-02-23T15:32:52;11.20;99.90
40600;DHT22;26309;50.924;4.754;2024-02-23T15:35:18;11.00;99.90
40600;DHT22;26309;50.924;4.754;2024-02-23T15:37:44;11.10;99.90
40600;DHT22;26309;50.924;4.754;2024-02-23T15:40:11;11.30;99.90
40600;DHT22;26309;50.924;4.754;2024-02-23T15:42:37;11.50;99.90